Currently 81°F in Temecula, California, USA
81°F
81°F / 58°F
6 mph SW
0.00"
Monday, July 4, 2022 2:56 PM PDT

Temecula, California Weather Summary
Last 36 Hours

Temperature Winds Hourly Humidity Dewpoint
Time Report Norm Report Norm Max Gusts Precip. Rpt. Norm Rpt. Norm Pressure
1Mon 02:56 PM  80.5°F  88°F  6 mph SW  9 mph  16 mph  0.00"  49%  36%  59°F  57°F  29.86"
2Mon 02:44 PM  80.6°F  88°F  8 mph SW  9 mph  18 mph  ----  48%  36%  58°F  57°F  29.88"
Mon 02:00 PM  79.8°F  88°F  7 mph SW  9 mph  15 mph  0.00"  52%  37%  60°F  57°F  29.87"
Mon 01:00 PM  79.9°F  87°F  8 mph SW  8 mph  17 mph  0.00"  49%  39%  59°F  58°F  29.88"
Mon 12:00 PM  77.4°F  84°F  5 mph SW  6 mph  16 mph  0.00"  50%  42%  57°F  58°F  29.90"
Mon 11:00 AM  73.8°F  81°F  5 mph W  4 mph  14 mph  0.00"  60%  49%  59°F  59°F  29.91"
Mon 10:00 AM  68.1°F  75°F  1 mph W  2 mph  12 mph  0.00"  73%  60%  59°F  60°F  29.92"
Mon 09:00 AM  63.6°F  69°F  calm  1 mph  6 mph  0.00"  83%  72%  58°F  59°F  29.92"
Mon 08:00 AM  61.4°F  64°F  calm  1 mph  6 mph  0.00"  89%  83%  58°F  59°F  29.92"
Mon 07:00 AM  59.8°F  62°F  calm  calm  6 mph  0.00"  93%  88%  58°F  58°F  29.91"
Mon 06:00 AM  59.4°F  61°F  calm  calm  5 mph  0.00"  94%  88%  58°F  58°F  29.90"
Mon 05:00 AM  59.4°F  62°F  calm  calm  none  0.00"  94%  87%  58°F  58°F  29.90"
Mon 04:00 AM  58.9°F  62°F  calm  1 mph  none  0.00"  95%  86%  57°F  58°F  29.88"
3Mon 03:28 AM  58.3°F  63°F  calm  1 mph  none  ----  95%  86%  57°F  58°F  29.89"
Mon 03:00 AM  58.7°F  63°F  calm  1 mph  6 mph  0.00"  95%  85%  57°F  58°F  29.88"
Mon 02:00 AM  59.0°F  64°F  1 mph SE  1 mph  4 mph  0.00"  94%  84%  57°F  58°F  29.89"
Mon 01:00 AM  59.8°F  64°F  calm  1 mph  5 mph  0.00"  92%  82%  57°F  59°F  29.89"
Mon 12:00 AM  60.5°F  66°F  calm  1 mph  6 mph  0.00"  91%  80%  58°F  59°F  29.90"
Sun 11:00 PM  61.5°F  67°F  calm  1 mph  9 mph  0.00"  89%  77%  58°F  59°F  29.90"
Sun 10:00 PM  62.3°F  69°F  2 mph S  2 mph  10 mph  0.00"  86%  73%  58°F  59°F  29.89"
Sun 09:00 PM  64.1°F  71°F  4 mph SW  3 mph  10 mph  0.00"  83%  66%  58°F  59°F  29.87"
Sun 08:00 PM  67.0°F  75°F  5 mph SW  4 mph  15 mph  0.00"  75%  57%  59°F  58°F  29.85"
Sun 07:00 PM  71.5°F  79°F  8 mph SW  6 mph  18 mph  0.00"  64%  49%  58°F  58°F  29.83"
Sun 06:00 PM  75.0°F  83°F  6 mph SW  7 mph  18 mph  0.00"  60%  43%  60°F  57°F  29.82"
Sun 05:00 PM  76.8°F  86°F  6 mph SW  8 mph  17 mph  0.00"  58%  39%  60°F  57°F  29.82"
Sun 04:00 PM  78.4°F  87°F  7 mph S  9 mph  21 mph  0.00"  56%  37%  61°F  57°F  29.82"
Sun 03:00 PM  77.8°F  88°F  10 mph SW  9 mph  18 mph  0.00"  56%  36%  60°F  57°F  29.85"
Sun 02:00 PM  79.1°F  88°F  7 mph SW  9 mph  20 mph  0.00"  54%  36%  60°F  57°F  29.86"
Sun 01:00 PM  79.3°F  87°F  7 mph SW  8 mph  15 mph  0.00"  52%  38%  59°F  57°F  29.86"
Sun 12:00 PM  77.4°F  84°F  5 mph SW  6 mph  18 mph  0.00"  54%  42%  59°F  58°F  29.88"
Sun 11:00 AM  75.0°F  81°F  4 mph W  4 mph  14 mph  0.00"  58%  49%  59°F  59°F  29.88"
Sun 10:00 AM  71.1°F  75°F  3 mph W  2 mph  8 mph  0.00"  64%  60%  58°F  60°F  29.89"
Sun 09:00 AM  66.3°F  69°F  calm  1 mph  4 mph  0.00"  78%  72%  59°F  59°F  29.90"
Sun 08:00 AM  62.9°F  64°F  calm  1 mph  3 mph  0.00"  84%  83%  58°F  59°F  29.90"
Sun 07:00 AM  61.2°F  62°F  calm  calm  8 mph  0.00"  88%  87%  57°F  58°F  29.90"
Sun 06:00 AM  61.8°F  61°F  calm  calm  5 mph  0.00"  89%  88%  58°F  57°F  29.90"
Sun 05:00 AM  62.3°F  61°F  3 mph S  calm  8 mph  0.00"  92%  87%  60°F  57°F  29.89"
Sun 04:00 AM  62.4°F  62°F  4 mph SW  1 mph  9 mph  0.00"  93%  86%  60°F  58°F  29.89"
Sun 03:00 AM  62.5°F  63°F  3 mph S  1 mph  8 mph  0.00"  94%  85%  61°F  58°F  29.88"

  1. Current weather data. No green row appears if the current weather data is also the high or low for the current day.
  2. High temperature for the current day.
  3. Low temperature for the current day.

The Temecula weather pages are a service of WeatherCurrents. Temecula, California is located in the Temecula Valley, in southwestern Riverside County, along the Interstate 15 highway. The Temecula Valley's rolling hills are home to the Temecula wine country, vineyards, golf courses, a casino resort, and Old Town Temecula.
Copyright ©2022  WeatherCurrents. All rights reserved. - Submit questions and comments - Privacy Policy

This page automatically refreshes every 10 minutes.